Time;durP1;ratioP1;P1;durP2;ratioP2;P2;SDS_P1;SDS_P2;PMS_P1;PMS_P2;Temp;Humidity;BMP_temperature;BMP_pressure;BME280_temperature;BME280_humidity;BME280_pressure;Samples;Min_cycle;Max_cycle;Signal;HPM_P1;HPM_P2
2024/02/27 00:03:48;;;;;;;44.50;24.40;;;;;;;6.12;78.76;99607.13;125754;1299;640183;-68
2024/02/27 00:07:50;;;;;;;45.40;23.70;;;;;;;5.99;78.82;99610.30;127423;1291;127820;-68
2024/02/27 00:11:51;;;;;;;46.10;22.40;;;;;;;5.89;78.92;99619.90;125728;1317;114975;-68
2024/02/27 00:15:55;;;;;;;49.00;26.10;;;;;;;5.80;79.01;99613.39;120432;1314;5417089;-69
2024/02/27 00:24:30;;;;;;;57.80;30.20;;;;;;;5.59;79.21;99616.52;125736;1303;638677;-68
2024/02/27 00:32:39;;;;;;;54.40;29.00;;;;;;;5.34;78.96;99629.22;126573;1296;114945;-68
2024/02/27 00:36:43;;;;;;;50.80;24.90;;;;;;;5.23;79.03;99634.40;122128;1299;5409288;-70
2024/02/27 00:40:45;;;;;;;48.30;27.80;;;;;;;5.12;79.29;99632.50;125310;1310;115204;-67
2024/02/27 00:49:18;;;;;;;50.40;28.50;;;;;;;4.96;79.76;99634.18;125681;1300;641496;-68
2024/02/27 00:52:59;;;;;;;51.40;25.60;;;;;;;4.83;79.75;99639.92;127599;1287;128974;-67
2024/02/27 00:56:54;;;;;;;49.50;27.00;;;;;;;4.76;80.07;99642.52;127260;1284;114928;-68
2024/02/27 01:04:49;;;;;;;39.80;23.50;;;;;;;4.61;79.94;99658.10;125581;1306;115015;-67
2024/02/27 01:08:49;;;;;;;47.80;24.70;;;;;;;4.53;80.10;99657.65;125208;1311;114977;-68
2024/02/27 01:12:42;;;;;;;;;;;;;;;;;;;;;
2024/02/27 01:16:43;;;;;;;;;;;;;;;;;;;;;
2024/02/27 01:20:37;;;;;;;;;;;;;;;;;;;;;
2024/02/27 01:29:14;;;;;;;48.50;26.40;;;;;;;4.40;81.67;99657.38;128002;1279;127903;-68
2024/02/27 01:33:18;;;;;;;50.50;26.20;;;;;;;4.44;81.76;99655.33;126609;1293;115439;-68
2024/02/27 01:37:19;;;;;;;49.70;24.40;;;;;;;4.45;82.13;99643.97;121674;1320;5441698;-69
2024/02/27 01:45:49;;;;;;;;;;;;;;;;;;;;;
2024/02/27 01:49:34;;;;;;;;;;;;;;;;;;;;;
2024/02/27 01:53:38;;;;;;;57.90;28.10;;;;;;;4.38;82.25;99648.63;127780;1281;114984;-68
2024/02/27 01:57:48;;;;;;;;;;;;;;;;;;;;;
2024/02/27 02:01:50;;;;;;;55.20;26.20;;;;;;;4.27;82.37;99658.02;125537;1304;114955;-67
2024/02/27 02:05:50;;;;;;;;;;;;;;;;;;;;;
2024/02/27 02:14:21;;;;;;;;;;;;;;;;;;;;;
2024/02/27 02:26:27;;;;;;;42.90;23.20;;;;;;;3.92;82.32;99704.20;121817;1306;5443251;-69
2024/02/27 02:35:01;;;;;;;45.90;22.70;;;;;;;3.80;82.32;99710.95;125722;1298;638934;-67
2024/02/27 02:38:46;;;;;;;46.30;22.10;;;;;;;3.69;82.40;99715.88;126869;1292;127846;-68
2024/02/27 02:42:49;;;;;;;42.40;22.10;;;;;;;3.60;82.28;99717.73;126542;1295;114951;-68
2024/02/27 03:03:33;;;;;;;48.10;23.20;;;;;;;3.21;82.53;99739.16;128322;1281;114813;-68
2024/02/27 03:07:40;;;;;;;44.20;24.10;;;;;;;3.14;82.61;99739.02;123587;1283;5415885;-67
2024/02/27 03:11:41;;;;;;;46.20;24.30;;;;;;;3.08;82.57;99733.37;125817;1301;114953;-68
2024/02/27 03:20:16;;;;;;;48.00;23.60;;;;;;;2.98;82.55;99738.40;125778;1309;639198;-68
2024/02/27 03:24:18;;;;;;;35.10;19.60;;;;;;;2.89;82.76;99742.67;126953;1299;130042;-68
2024/02/27 03:28:19;;;;;;;38.00;20.90;;;;;;;2.84;82.84;99744.05;126300;1317;114923;-67
2024/02/27 03:32:21;;;;;;;34.00;17.50;;;;;;;2.78;82.88;99748.62;121933;1315;5491321;-69
2024/02/27 03:40:54;;;;;;;40.60;20.10;;;;;;;2.69;83.09;99758.55;125761;1311;639371;-67
2024/02/27 03:49:30;;;;;;;40.00;22.80;;;;;;;2.58;82.84;99764.81;125821;1305;640199;-68
2024/02/27 03:57:58;;;;;;;42.90;22.70;;;;;;;2.49;83.08;99777.40;125982;1304;638015;-67
2024/02/27 04:01:52;;;;;;;;;;;;;;;;;;;;;
2024/02/27 04:05:56;;;;;;;38.90;21.30;;;;;;;2.36;83.02;99776.64;127103;1289;114967;-67
2024/02/27 04:09:50;;;;;;;39.60;20.50;;;;;;;2.31;83.07;99781.02;122320;1299;5437865;-67
2024/02/27 04:13:51;;;;;;;43.60;22.00;;;;;;;2.25;83.06;99780.60;125684;1317;114963;-67
2024/02/27 04:22:26;;;;;;;57.00;25.10;;;;;;;2.21;83.17;99791.30;125845;1305;640248;-68
2024/02/27 04:26:28;;;;;;;58.00;26.30;;;;;;;2.14;83.46;99798.14;127371;1307;129818;-67
2024/02/27 04:30:30;;;;;;;53.90;24.30;;;;;;;2.11;83.55;99802.44;125656;1302;114985;-67
2024/02/27 04:34:29;;;;;;;;;;;;;;;;;;;;;
2024/02/27 04:42:53;;;;;;;62.40;26.90;;;;;;;2.04;83.47;99807.34;125764;1313;641592;-67
2024/02/27 04:46:54;;;;;;;61.60;27.90;;;;;;;1.98;83.87;99808.19;127378;1291;127417;-69
2024/02/27 04:50:47;;;;;;;;;;;;;;;;;;;;;
2024/02/27 04:54:49;;;;;;;;;;;;;;;;;;;;;
2024/02/27 05:03:47;;;;;;;67.80;29.30;;;;;;;1.91;83.76;99808.69;126078;1304;636068;-67
2024/02/27 05:07:22;;;;;;;;;;;;;;;;;;;;;
2024/02/27 05:11:26;;;;;;;56.70;27.50;;;;;;;1.83;83.81;99809.21;127173;1293;114898;-68
2024/02/27 05:15:27;;;;;;;55.80;25.00;;;;;;;1.80;83.93;99810.54;122318;1315;5418291;-67
2024/02/27 05:19:27;;;;;;;37.10;20.20;;;;;;;1.75;83.97;99811.84;125243;1320;114898;-67
2024/02/27 05:23:28;;;;;;;39.30;23.00;;;;;;;1.73;84.05;99823.88;124793;1307;114969;-67
2024/02/27 05:32:04;;;;;;;50.20;27.00;;;;;;;1.70;84.15;99829.73;125935;1297;638590;-66
2024/02/27 05:40:14;;;;;;;51.80;27.10;;;;;;;1.66;84.56;99844.06;126117;1297;114962;-68
2024/02/27 05:48:33;;;;;;;;;;;;;;;;;;;;;
2024/02/27 05:52:37;;;;;;;48.10;25.30;;;;;;;1.69;84.58;99851.59;128837;1278;128129;-67
2024/02/27 05:56:40;;;;;;;51.10;25.40;;;;;;;1.70;84.78;99855.08;126768;1292;114892;-69
2024/02/27 06:00:41;;;;;;;53.50;25.60;;;;;;;1.71;84.80;99866.86;121719;1301;5400177;-68
2024/02/27 06:04:41;;;;;;;53.80;25.90;;;;;;;1.74;85.01;99866.77;124162;1316;114971;-68
2024/02/27 06:12:47;;;;;;;;;;;;;;;;;;;;;
2024/02/27 06:16:40;;;;;;;;;;;;;;;;;;;;;
2024/02/27 06:24:41;;;;;;;61.30;31.40;;;;;;;2.16;85.63;99876.84;126413;1312;5412695;-67
2024/02/27 06:28:42;;;;;;;59.50;28.00;;;;;;;2.31;85.98;99873.67;125488;1308;115049;-68
2024/02/27 06:37:07;;;;;;;72.40;32.30;;;;;;;2.67;86.10;99888.02;125792;1303;638474;-66
2024/02/27 06:41:08;;;;;;;;;;;;;;;;;;;;;
2024/02/27 06:45:12;;;;;;;75.10;35.20;;;;;;;3.13;86.63;99902.09;126766;1290;114891;-68
2024/02/27 06:53:15;;;;;;;73.60;39.10;;;;;;;3.68;87.01;99902.74;125324;1307;114999;-67
2024/02/27 06:57:16;;;;;;;90.30;41.60;;;;;;;3.99;87.25;99898.69;125222;1325;114962;-68
2024/02/27 07:05:30;;;;;;;;;;;;;;;;;;;;;
2024/02/27 07:09:34;;;;;;;65.80;37.70;;;;;;;5.12;87.92;99880.85;127946;1283;129036;-68
2024/02/27 07:13:35;;;;;;;66.00;33.40;;;;;;;5.50;88.04;99884.14;127876;1283;115024;-68
2024/02/27 07:17:38;;;;;;;52.20;29.00;;;;;;;5.85;88.16;99887.88;123046;1286;5443025;-68
2024/02/27 07:21:37;;;;;;;58.80;33.60;;;;;;;6.14;88.13;99887.73;125712;1305;114863;-68
2024/02/27 07:30:12;;;;;;;57.60;34.30;;;;;;;6.70;87.84;99892.98;125820;1301;638502;-70
2024/02/27 07:38:16;;;;;;;45.80;27.10;;;;;;;7.25;87.28;99911.86;126036;1296;114951;-69
2024/02/27 07:46:56;;;;;;;47.70;29.40;;;;;;;7.79;86.77;99922.02;125747;1301;638414;-68
2024/02/27 07:50:58;;;;;;;57.10;33.20;;;;;;;7.93;86.08;99925.47;128277;1284;127937;-68
2024/02/27 07:55:00;;;;;;;60.50;33.80;;;;;;;8.04;86.13;99925.15;127968;1284;114866;-68
2024/02/27 07:59:07;;;;;;;61.30;35.80;;;;;;;8.10;85.44;99925.27;123261;1290;5477096;-69
2024/02/27 08:03:08;;;;;;;65.50;31.70;;;;;;;8.28;85.77;99932.98;126479;1290;114897;-68
2024/02/27 08:07:09;;;;;;;60.60;31.90;;;;;;;8.48;85.14;99928.86;125797;1298;114971;-68
2024/02/27 08:15:44;;;;;;;59.30;32.00;;;;;;;8.52;83.69;99955.93;125696;1302;638650;-69
2024/02/27 08:19:43;;;;;;;;;;;;;;;;;;;;;
2024/02/27 08:23:46;;;;;;;57.90;32.40;;;;;;;8.16;83.24;99957.16;125656;1302;114955;-69
2024/02/27 08:27:47;;;;;;;;;;;;;;;;;;;;;
2024/02/27 08:36:08;;;;;;;52.20;29.00;;;;;;;7.93;82.52;99966.00;125609;1303;640308;-68
2024/02/27 08:40:11;;;;;;;51.40;28.20;;;;;;;7.84;83.18;99961.95;128356;1299;128940;-69
2024/02/27 08:44:13;;;;;;;54.80;30.20;;;;;;;7.76;82.57;99962.30;127822;1284;114941;-67
2024/02/27 08:48:16;;;;;;;54.80;30.40;;;;;;;7.77;82.92;99976.13;122906;1296;5417548;-69
2024/02/27 08:56:18;;;;;;;53.50;29.80;;;;;;;7.86;83.14;99973.81;125029;1304;114957;-69
2024/02/27 09:05:14;;;;;;;48.10;28.80;;;;;;;7.94;82.39;99982.34;125774;1299;638462;-67
2024/02/27 09:08:47;;;;;;;;;;;;;;;;;;;;;
2024/02/27 09:12:51;;;;;;;45.60;27.90;;;;;;;7.75;82.15;100010.02;128837;1294;114904;-70
2024/02/27 09:16:52;;;;;;;43.10;25.30;;;;;;;7.67;82.01;100013.73;124260;1281;5410352;-69
2024/02/27 09:20:56;;;;;;;44.20;26.60;;;;;;;7.59;81.83;100011.01;126879;1295;114994;-68
2024/02/27 09:24:57;;;;;;;38.00;23.20;;;;;;;7.54;81.86;100015.16;126435;1305;116617;-68
2024/02/27 09:28:59;;;;;;;41.30;26.20;;;;;;;7.48;81.43;100019.28;125796;1301;115057;-69
2024/02/27 09:33:00;;;;;;;41.10;25.70;;;;;;;7.40;81.89;100015.00;125544;1302;129740;-69
2024/02/27 09:41:34;;;;;;;41.50;25.30;;;;;;;7.54;81.95;100012.48;126202;1308;638373;-68
2024/02/27 09:45:39;;;;;;;45.30;26.30;;;;;;;7.66;81.72;100008.77;127657;1287;129094;-68
2024/02/27 09:49:34;;;;;;;;;;;;;;;;;;;;;
2024/02/27 09:53:29;;;;;;;30.90;19.30;;;;;;;7.96;81.59;100005.91;122166;1301;5414281;-68
2024/02/27 09:57:29;;;;;;;40.00;22.80;;;;;;;8.04;81.30;100013.58;125596;1305;114965;-68
2024/02/27 10:01:23;;;;;;;;;;;;;;;;;;;;;
2024/02/27 10:09:58;;;;;;;32.50;22.80;;;;;;;8.68;81.31;100027.46;125743;1301;637913;-68
2024/02/27 10:14:01;;;;;;;37.70;23.90;;;;;;;9.03;81.38;100026.75;127747;1302;129132;-70
2024/02/27 10:18:04;;;;;;;34.60;22.70;;;;;;;9.50;81.25;100025.00;126197;1293;114996;-68
2024/02/27 10:26:32;;;;;;;34.70;23.00;;;;;;;10.02;80.00;100025.98;125805;1305;638618;-68
2024/02/27 10:34:39;;;;;;;36.60;21.90;;;;;;;10.18;79.03;100036.36;126638;1312;114945;-68
2024/02/27 10:38:32;;;;;;;;;;;;;;;;;;;;;
2024/02/27 10:47:10;;;;;;;40.70;25.20;;;;;;;10.20;78.46;100033.60;125844;1302;639636;-68
2024/02/27 10:55:11;;;;;;;39.50;24.10;;;;;;;10.24;78.08;100033.57;126884;1290;114859;-69
2024/02/27 10:59:18;;;;;;;38.30;21.20;;;;;;;10.30;77.81;100040.20;122451;1312;5495159;-68
2024/02/27 11:03:20;;;;;;;34.80;21.70;;;;;;;10.34;77.77;100036.63;125520;1308;115144;-71
2024/02/27 11:11:57;;;;;;;50.70;29.40;;;;;;;10.25;77.16;100035.65;125970;1301;636652;-69
2024/02/27 11:15:58;;;;;;;41.80;24.90;;;;;;;10.21;77.41;100034.25;127012;1293;129832;-70
2024/02/27 11:20:00;;;;;;;;;;;;;;;;;;;;;
2024/02/27 11:23:32;;;;;;;;;;;;;;;;;;;;;
2024/02/27 11:27:35;;;;;;;41.70;24.30;;;;;;;10.26;77.43;100027.95;125419;1302;114843;-71
2024/02/27 11:36:10;;;;;;;33.60;23.20;;;;;;;10.59;76.94;100026.95;125910;1305;637937;-71
2024/02/27 11:40:11;;;;;;;38.50;24.00;;;;;;;10.81;76.99;100024.32;126898;1291;129797;-69
2024/02/27 11:48:29;;;;;;;36.50;21.90;;;;;;;11.31;76.70;100014.55;121146;1310;5509221;-69
2024/02/27 11:57:05;;;;;;;38.50;25.80;;;;;;;11.49;76.21;100015.88;125849;1299;640575;-71
2024/02/27 12:01:10;;;;;;;37.30;23.90;;;;;;;11.49;75.60;100019.63;127018;1291;128127;-70
2024/02/27 12:05:16;;;;;;;33.40;22.30;;;;;;;11.44;75.30;100017.40;127579;1283;115038;-70
2024/02/27 12:17:49;;;;;;;39.70;24.70;;;;;;;11.32;75.20;100022.23;125898;1298;636665;-70
2024/02/27 12:21:53;;;;;;;37.20;22.80;;;;;;;11.33;75.17;100020.71;126942;1290;129022;-72
2024/02/27 12:25:54;;;;;;;34.80;22.70;;;;;;;11.39;75.46;100020.16;125646;1299;114961;-72
2024/02/27 12:38:33;;;;;;;38.60;23.10;;;;;;;11.74;75.25;100017.80;126935;1293;128268;-70
2024/02/27 12:42:33;;;;;;;40.80;24.40;;;;;;;11.78;74.91;100012.23;126359;1292;114805;-70
2024/02/27 12:46:32;;;;;;;38.30;25.60;;;;;;;11.91;75.27;100014.48;121857;1305;5420072;-69
2024/02/27 12:55:01;;;;;;;42.80;27.90;;;;;;;12.09;74.54;100020.27;125731;1304;638570;-69
2024/02/27 12:59:03;;;;;;;35.90;25.20;;;;;;;12.11;74.75;100018.34;127356;1290;129489;-69
2024/02/27 13:03:04;;;;;;;40.50;26.10;;;;;;;12.16;74.60;100023.20;126045;1313;114978;-68
2024/02/27 13:06:59;;;;;;;;;;;;;;;;;;;;;
2024/02/27 13:11:00;;;;;;;44.50;26.40;;;;;;;12.13;74.28;100023.56;124891;1308;114904;-70
2024/02/27 13:19:32;;;;;;;39.80;27.40;;;;;;;12.04;73.91;100022.31;125717;1305;640968;-70
2024/02/27 13:28:08;;;;;;;38.80;24.90;;;;;;;11.92;74.09;100033.23;125846;1303;638703;-69
2024/02/27 13:36:11;;;;;;;37.30;23.50;;;;;;;11.84;74.15;100032.20;125666;1298;114795;-68
2024/02/27 13:40:13;;;;;;;37.20;24.20;;;;;;;11.84;73.87;100022.59;120598;1312;5434348;-69
2024/02/27 13:44:05;;;;;;;42.10;26.90;;;;;;;11.83;74.11;100024.03;123994;1319;115007;-68
2024/02/27 14:00:30;;;;;;;39.70;26.10;;;;;;;11.67;73.57;100026.98;126120;1303;115321;-68
2024/02/27 14:04:24;;;;;;;45.70;28.30;;;;;;;11.57;73.78;100025.02;122083;1304;5404682;-67
2024/02/27 14:08:25;;;;;;;40.40;25.10;;;;;;;11.47;73.90;100029.94;125020;1327;114977;-68
2024/02/27 14:11:48;;;;;;;37.20;24.70;;;;;;;11.45;74.11;100029.84;123845;1319;114919;-68
2024/02/27 14:20:24;;;;;;;35.50;25.90;;;;;;;11.36;73.93;100035.89;126255;1298;640025;-67
2024/02/27 14:24:28;;;;;;;45.90;28.80;;;;;;;11.22;74.30;100037.95;126858;1288;130149;-66
2024/02/27 14:28:30;;;;;;;47.60;30.50;;;;;;;11.11;74.05;100036.79;125547;1302;115036;-65
2024/02/27 14:36:48;;;;;;;;;;;;;;;;;;;;;
2024/02/27 14:40:52;;;;;;;39.50;23.30;;;;;;;10.81;74.45;100036.98;128727;1276;127805;-66
2024/02/27 14:44:54;;;;;;;42.20;25.60;;;;;;;10.71;74.63;100035.41;127520;1286;114773;-65
2024/02/27 14:49:03;;;;;;;39.90;24.00;;;;;;;10.60;74.80;100039.88;122227;1298;5500686;-66
2024/02/27 14:52:53;;;;;;;37.40;22.60;;;;;;;10.53;75.01;100050.30;123916;1335;114896;-66
2024/02/27 14:56:43;;;;;;;;;;;;;;;;;;;;;
2024/02/27 15:01:05;;;;;;;;;;;;;;;;;;;;;
2024/02/27 15:05:10;;;;;;;40.60;24.00;;;;;;;10.33;75.52;100058.43;127612;1289;128818;-66
2024/02/27 15:09:12;;;;;;;39.40;23.30;;;;;;;10.26;75.63;100059.90;127377;1303;114966;-63
2024/02/27 15:13:13;;;;;;;39.80;22.90;;;;;;;10.19;75.98;100063.63;121441;1315;5431984;-63
2024/02/27 15:17:05;;;;;;;;;;;;;;;;;;;;;
2024/02/27 15:29:11;;;;;;;40.20;23.70;;;;;;;10.11;76.16;100075.10;126575;1288;128858;-62
2024/02/27 15:33:02;;;;;;;43.30;24.20;;;;;;;9.99;75.84;100075.52;125880;1297;114949;-62
2024/02/27 15:36:56;;;;;;;41.20;24.80;;;;;;;9.83;75.71;100082.56;123312;1300;5450863;-63
2024/02/27 15:40:58;;;;;;;42.20;25.50;;;;;;;9.67;76.25;100082.11;125133;1306;114939;-63
2024/02/27 15:48:58;;;;;;;43.50;24.70;;;;;;;9.44;76.55;100087.51;123450;1319;128590;-61
2024/02/27 15:53:00;;;;;;;39.80;21.50;;;;;;;9.33;76.50;100091.27;123467;1319;115056;-62
2024/02/27 15:57:01;;;;;;;41.00;23.70;;;;;;;9.23;76.69;100099.70;123390;1335;115087;-62
2024/02/27 16:09:38;;;;;;;43.60;25.50;;;;;;;8.89;77.14;100115.00;127567;1299;128007;-61
2024/02/27 16:13:40;;;;;;;49.80;28.00;;;;;;;8.81;77.32;100115.02;126793;1307;114793;-62
2024/02/27 16:17:42;;;;;;;49.80;25.40;;;;;;;8.73;77.60;100122.86;121875;1301;5406058;-62
2024/02/27 16:34:28;;;;;;;;;;;;;;;;;;;;;
2024/02/27 16:38:32;;;;;;;52.50;25.80;;;;;;;8.27;78.89;100136.02;126606;1297;127589;-61
2024/02/27 16:42:21;;;;;;;;;;;;;;;;;;;;;
2024/02/27 16:46:24;;;;;;;56.90;28.70;;;;;;;8.17;79.06;100133.79;121665;1316;5763126;-62
2024/02/27 16:50:10;;;;;;;54.60;27.60;;;;;;;8.14;79.38;100141.89;124191;1331;114898;-61
2024/02/27 16:58:29;;;;;;;50.10;23.40;;;;;;;8.08;79.64;100157.45;126141;1295;635927;-66
2024/02/27 17:02:25;;;;;;;52.10;25.40;;;;;;;8.00;79.66;100162.96;129233;1275;128901;-67
2024/02/27 17:06:17;;;;;;;46.50;24.90;;;;;;;7.93;79.96;100163.95;128190;1278;114959;-65
2024/02/27 17:10:20;;;;;;;51.80;24.70;;;;;;;7.86;79.75;100164.57;128687;1289;115348;-65
2024/02/27 17:14:20;;;;;;;;;;;;;;;;;;;;;
2024/02/27 17:18:15;;;;;;;55.90;27.00;;;;;;;7.75;80.46;100173.00;126084;1297;114787;-64
2024/02/27 17:22:17;;;;;;;53.60;25.10;;;;;;;7.74;80.57;100177.48;125936;1300;114975;-65
2024/02/27 17:26:19;;;;;;;42.70;23.00;;;;;;;7.72;80.83;100181.30;125513;1304;129997;-65
2024/02/27 17:34:29;;;;;;;61.10;30.70;;;;;;;7.72;81.58;100183.95;126448;1297;637667;-66
2024/02/27 17:38:54;;;;;;;;;;;;;;;;;;;;;
2024/02/27 17:42:58;;;;;;;59.10;28.20;;;;;;;7.69;81.56;100186.97;126937;1307;115038;-67
2024/02/27 17:46:34;;;;;;;;;;;;;;;;;;;;;
2024/02/27 17:50:36;;;;;;;52.20;25.20;;;;;;;7.64;82.00;100185.55;125305;1322;114941;-65
2024/02/27 17:54:18;;;;;;;55.20;27.50;;;;;;;7.58;82.12;100182.55;124194;1316;114845;-66
2024/02/27 18:02:53;;;;;;;52.70;28.40;;;;;;;7.58;82.10;100189.15;125845;1303;639544;-63
2024/02/27 18:06:19;;;;;;;56.40;26.80;;;;;;;7.52;82.21;100190.11;128872;1269;128579;-65
2024/02/27 18:10:23;;;;;;;52.80;27.60;;;;;;;7.50;82.44;100200.46;129099;1270;114704;-65
2024/02/27 18:14:33;;;;;;;45.90;24.70;;;;;;;7.47;82.41;100205.73;127699;1302;114910;-65
2024/02/27 18:18:26;;;;;;;49.00;24.10;;;;;;;7.38;82.93;100202.14;122162;1296;114956;-67
2024/02/27 18:26:49;;;;;;;47.60;25.50;;;;;;;7.39;83.27;100211.20;126097;1301;637591;-66
2024/02/27 18:30:37;;;;;;;;;;;;;;;;;;;;;
2024/02/27 18:34:40;;;;;;;52.70;27.40;;;;;;;7.38;83.69;100213.70;126096;1302;114875;-67
2024/02/27 18:43:16;;;;;;;49.10;25.60;;;;;;;7.40;83.59;100209.73;125755;1311;638549;-68
2024/02/27 18:51:53;;;;;;;51.50;26.20;;;;;;;7.42;83.76;100209.66;125840;1299;638728;-68
2024/02/27 18:55:52;;;;;;;;;;;;;;;;;;;;;
2024/02/27 18:59:57;;;;;;;50.60;26.10;;;;;;;7.35;83.92;100215.42;127044;1286;115103;-67
2024/02/27 19:03:55;;;;;;;;;;;;;;;;;;;;;
2024/02/27 19:12:21;;;;;;;;;;;;;;;;;;;;;
2024/02/27 19:20:29;;;;;;;51.20;26.00;;;;;;;7.32;84.06;100221.95;128527;1277;114912;-68
2024/02/27 19:24:21;;;;;;;;;;;;;;;;;;;;;
2024/02/27 19:28:45;;;;;;;53.70;27.80;;;;;;;7.31;84.47;100222.66;126626;1289;114748;-67
2024/02/27 19:32:28;;;;;;;49.90;25.00;;;;;;;7.31;84.45;100221.78;126084;1309;114986;-69
2024/02/27 19:41:00;;;;;;;;;;;;;;;;;;;;;
2024/02/27 19:45:03;;;;;;;61.30;30.80;;;;;;;7.35;84.59;100238.34;128268;1284;128989;-69
2024/02/27 19:49:04;;;;;;;54.10;28.50;;;;;;;7.37;84.74;100235.79;126741;1295;114939;-70
2024/02/27 19:57:47;;;;;;;56.00;30.50;;;;;;;7.39;84.59;100236.95;125745;1303;640248;-67
2024/02/27 20:01:45;;;;;;;;;;;;;;;;;;;;;
2024/02/27 20:05:51;;;;;;;;;;;;;;;;;;;;;
2024/02/27 20:09:46;;;;;;;52.70;27.20;;;;;;;7.42;85.03;100255.67;121239;1308;5428926;-68
2024/02/27 20:13:46;;;;;;;53.10;28.70;;;;;;;7.41;84.95;100250.73;124224;1320;114934;-68
2024/02/27 20:17:28;;;;;;;;;;;;;;;;;;;;;
2024/02/27 20:21:28;;;;;;;;;;;;;;;;;;;;;
2024/02/27 20:26:02;;;;;;;49.30;24.70;;;;;;;7.46;84.99;100258.20;125922;1299;638592;-69
2024/02/27 20:30:04;;;;;;;50.20;25.70;;;;;;;7.42;84.76;100257.64;127206;1290;128824;-68
2024/02/27 20:33:46;;;;;;;56.60;26.10;;;;;;;7.42;84.98;100259.41;126506;1296;114864;-69
2024/02/27 20:37:47;;;;;;;54.10;26.50;;;;;;;7.41;85.17;100259.63;122268;1302;5480205;-68
2024/02/27 20:41:30;;;;;;;54.20;25.10;;;;;;;7.40;85.33;100266.05;125095;1311;115044;-68
2024/02/27 20:50:07;;;;;;;55.80;26.80;;;;;;;7.45;85.30;100268.73;125837;1302;638014;-67
2024/02/27 20:54:06;;;;;;;60.50;25.90;;;;;;;7.45;85.42;100270.33;126565;1292;129704;-68
2024/02/27 20:58:07;;;;;;;59.50;26.10;;;;;;;7.46;85.42;100271.88;125997;1312;115058;-70
2024/02/27 21:01:54;;;;;;;57.30;28.20;;;;;;;7.47;85.52;100273.09;121618;1307;5436214;-70
2024/02/27 21:05:55;;;;;;;64.80;29.60;;;;;;;7.48;85.61;100276.23;125531;1307;114993;-70
2024/02/27 21:09:45;;;;;;;;;;;;;;;;;;;;;
2024/02/27 21:18:21;;;;;;;64.20;29.80;;;;;;;7.53;85.69;100277.66;125676;1303;638371;-68
2024/02/27 21:22:21;;;;;;;71.90;32.30;;;;;;;7.52;85.99;100283.58;127728;1305;127728;-68
2024/02/27 21:26:15;;;;;;;;;;;;;;;;;;;;;
2024/02/27 21:30:30;;;;;;;70.10;33.30;;;;;;;7.54;85.62;100279.92;122304;1299;5423515;-68
2024/02/27 21:34:31;;;;;;;74.50;30.90;;;;;;;7.54;85.94;100271.94;125041;1310;114933;-70
2024/02/27 21:38:32;;;;;;;79.40;34.90;;;;;;;7.53;85.89;100277.30;124721;1324;114951;-67
2024/02/27 21:47:07;;;;;;;67.10;33.00;;;;;;;7.57;85.94;100265.23;125891;1298;638723;-69
2024/02/27 21:51:00;;;;;;;68.50;28.60;;;;;;;7.54;86.13;100263.41;127966;1278;128820;-68
2024/02/27 21:55:02;;;;;;;66.70;29.70;;;;;;;7.54;85.97;100264.45;128328;1278;114838;-69
2024/02/27 21:59:06;;;;;;;68.80;29.50;;;;;;;7.52;86.38;100261.52;123875;1283;5422055;-69
2024/02/27 22:07:09;;;;;;;76.70;32.70;;;;;;;7.54;86.33;100271.54;125348;1326;115416;-69
2024/02/27 22:15:36;;;;;;;69.10;29.50;;;;;;;7.60;86.51;100266.41;125574;1303;638532;-67
2024/02/27 22:19:37;;;;;;;;;;;;;;;;;;;;;
2024/02/27 22:31:55;;;;;;;;;;;;;;;;;;;;;
2024/02/27 22:44:35;;;;;;;71.10;33.20;;;;;;;7.70;86.58;100271.33;125759;1302;638586;-68
2024/02/27 22:48:35;;;;;;;;;;;;;;;;;;;;;
2024/02/27 22:52:38;;;;;;;70.60;30.20;;;;;;;7.68;86.47;100279.76;126566;1293;114905;-68
2024/02/27 22:56:40;;;;;;;68.60;31.30;;;;;;;7.67;86.36;100275.70;121891;1300;5416730;-68
2024/02/27 23:00:39;;;;;;;;;;;;;;;;;;;;;
2024/02/27 23:05:13;;;;;;;71.40;30.50;;;;;;;7.68;86.67;100282.98;125724;1299;638818;-67
2024/02/27 23:09:16;;;;;;;72.00;32.80;;;;;;;7.65;86.44;100288.77;127378;1306;128855;-68
2024/02/27 23:13:23;;;;;;;63.80;28.00;;;;;;;7.63;86.42;100288.64;126206;1317;116618;-68
2024/02/27 23:17:25;;;;;;;68.80;29.70;;;;;;;7.63;86.53;100288.67;121632;1310;5412313;-67
2024/02/27 23:25:52;;;;;;;;;;;;;;;;;;;;;
2024/02/27 23:29:57;;;;;;;68.70;28.40;;;;;;;7.63;86.80;100297.02;127681;1303;128959;-68
2024/02/27 23:34:02;;;;;;;63.70;30.10;;;;;;;7.62;86.59;100292.61;126804;1293;114872;-68
2024/02/27 23:38:02;;;;;;;70.50;27.80;;;;;;;7.60;86.89;100288.77;122143;1293;5398754;-69
2024/02/27 23:46:34;;;;;;;;;;;;;;;;;;;;;
2024/02/27 23:50:38;;;;;;;73.50;29.60;;;;;;;7.59;86.89;100295.73;128545;1280;127968;-70
2024/02/27 23:54:40;;;;;;;69.50;28.10;;;;;;;7.60;87.48;100297.14;128427;1280;114862;-69
2024/02/27 23:58:43;;;;;;;77.60;31.00;;;;;;;7.60;87.09;100297.11;123268;1289;5521233;-68
